createdAt,value
2022-08-03T00:01:35.797Z,86.51
2022-08-03T00:04:03.609Z,86.61
2022-08-03T00:06:36.903Z,87.46
2022-08-03T00:09:06.592Z,87.55
2022-08-03T00:11:34.580Z,87.60
2022-08-03T00:14:02.504Z,88.07
2022-08-03T00:16:30.309Z,88.93
2022-08-03T00:18:58.134Z,88.79
2022-08-03T00:21:28.736Z,88.55
2022-08-03T00:23:57.914Z,88.67
2022-08-03T00:26:25.664Z,88.89
2022-08-03T00:28:53.433Z,88.38
2022-08-03T00:31:23.129Z,88.87
2022-08-03T00:34:09.103Z,88.64
2022-08-03T00:36:36.892Z,89.48
2022-08-03T00:39:06.155Z,88.84
2022-08-03T00:41:33.944Z,89.02
2022-08-03T00:44:01.820Z,89.08
2022-08-03T00:46:29.616Z,89.63
2022-08-03T00:48:57.532Z,88.74
2022-08-03T00:51:25.446Z,89.53
2022-08-03T00:53:53.292Z,89.29
2022-08-03T00:56:22.495Z,89.72
2022-08-03T00:58:51.208Z,89.21
2022-08-03T01:01:19.043Z,88.98
2022-08-03T01:03:47.434Z,90.07
2022-08-03T01:06:19.807Z,89.22
2022-08-03T01:08:53.460Z,88.17
2022-08-03T01:12:00.310Z,87.96
2022-08-03T01:14:34.852Z,89.55
2022-08-03T01:17:12.112Z,89.60
2022-08-03T01:19:47.638Z,89.46
2022-08-03T01:22:56.886Z,88.92
2022-08-03T01:25:36.309Z,88.50
2022-08-03T01:28:20.956Z,88.80
2022-08-03T01:30:53.650Z,89.64
2022-08-03T01:33:26.963Z,89.52
2022-08-03T01:36:00.670Z,90.46
2022-08-03T01:38:33.084Z,90.62
2022-08-03T01:41:05.457Z,90.35
2022-08-03T01:44:28.092Z,90.42
2022-08-03T01:46:25.689Z,90.95
2022-08-03T01:48:55.238Z,91.33
2022-08-03T01:51:24.760Z,90.57
2022-08-03T01:54:13.577Z,91.54
2022-08-03T01:56:43.680Z,90.65
2022-08-03T01:59:15.518Z,91.59
2022-08-03T02:02:15.494Z,91.91
2022-08-03T02:04:35.677Z,92.32
2022-08-03T02:07:04.107Z,92.42
2022-08-03T02:09:33.057Z,92.60
2022-08-03T02:12:01.874Z,92.75
2022-08-03T02:14:30.890Z,92.63
2022-08-03T02:17:00.694Z,92.17
2022-08-03T02:19:35.270Z,92.12
2022-08-03T02:22:04.615Z,92.59
2022-08-03T02:24:33.050Z,91.59
2022-08-03T02:27:02.147Z,90.62
2022-08-03T02:29:40.050Z,91.20
2022-08-03T02:32:15.296Z,92.35
2022-08-03T02:34:47.422Z,91.61
2022-08-03T02:37:19.231Z,91.00
2022-08-03T02:39:49.006Z,91.50
2022-08-03T02:42:20.006Z,91.46
2022-08-03T02:44:52.092Z,90.82
2022-08-03T02:47:22.309Z,91.07
2022-08-03T02:49:52.641Z,90.77
2022-08-03T02:52:24.316Z,91.24
2022-08-03T02:54:55.786Z,91.17
2022-08-03T02:57:25.925Z,91.63
2022-08-03T02:59:56.304Z,91.82
2022-08-03T03:02:26.438Z,91.39
2022-08-03T03:05:56.803Z,91.54
2022-08-03T03:07:52.099Z,92.88
2022-08-03T03:10:22.500Z,92.40
2022-08-03T03:12:52.361Z,91.31
2022-08-03T03:15:20.388Z,92.36
2022-08-03T03:17:51.268Z,92.01
2022-08-03T03:20:29.440Z,90.63
2022-08-03T03:23:00.974Z,91.12
2022-08-03T03:25:29.865Z,90.55
2022-08-03T03:27:58.152Z,90.74
2022-08-03T03:30:26.591Z,90.56
2022-08-03T03:32:56.281Z,90.91
2022-08-03T03:35:24.628Z,90.53
2022-08-03T03:37:53.300Z,91.30
2022-08-03T03:40:21.444Z,92.19
2022-08-03T03:42:50.347Z,92.36
2022-08-03T03:45:19.772Z,92.11
2022-08-03T03:47:48.134Z,91.67
2022-08-03T03:50:20.273Z,91.03
2022-08-03T03:52:48.065Z,91.35
2022-08-03T03:55:19.031Z,90.71
2022-08-03T03:57:47.587Z,91.37
2022-08-03T04:00:16.828Z,91.86
2022-08-03T04:02:44.952Z,92.20
2022-08-03T04:05:30.577Z,91.72
2022-08-03T04:08:19.690Z,92.03
2022-08-03T04:11:01.586Z,93.65
2022-08-03T04:13:32.997Z,93.32
2022-08-03T04:16:02.387Z,92.72
2022-08-03T04:18:33.593Z,92.72
2022-08-03T04:21:04.797Z,92.95
2022-08-03T04:23:36.850Z,93.82
2022-08-03T04:26:09.674Z,94.12
2022-08-03T04:28:41.134Z,93.28
2022-08-03T04:31:09.278Z,93.28
2022-08-03T04:33:39.528Z,94.19
2022-08-03T04:36:11.330Z,93.25
2022-08-03T04:38:48.179Z,93.59
2022-08-03T04:41:16.579Z,93.19
2022-08-03T04:43:45.478Z,93.71
2022-08-03T04:46:14.162Z,94.06
2022-08-03T04:48:44.731Z,93.84
2022-08-03T04:51:13.437Z,93.62
2022-08-03T04:53:44.369Z,94.78
2022-08-03T04:56:12.530Z,94.11
2022-08-03T04:58:40.438Z,94.72
2022-08-03T05:01:08.690Z,94.95
2022-08-03T05:03:36.578Z,95.27
2022-08-03T05:06:11.408Z,94.16
2022-08-03T05:08:46.411Z,93.92
2022-08-03T05:11:16.327Z,94.24
2022-08-03T05:13:44.440Z,94.27
2022-08-03T05:16:15.912Z,94.05
2022-08-03T05:18:46.187Z,92.93
2022-08-03T05:21:16.686Z,93.55
2022-08-03T05:23:44.916Z,93.70
2022-08-03T05:26:13.150Z,94.47
2022-08-03T05:28:50.829Z,94.88
2022-08-03T05:31:19.992Z,94.37
2022-08-03T05:33:48.979Z,94.83
2022-08-03T05:36:17.115Z,95.22
2022-08-03T05:38:44.886Z,96.11
2022-08-03T05:41:21.290Z,96.04
2022-08-03T05:43:52.637Z,95.27
2022-08-03T05:46:21.063Z,94.54
2022-08-03T05:48:48.913Z,94.50
2022-08-03T05:51:16.767Z,91.53
2022-08-03T05:53:45.314Z,92.21
2022-08-03T05:56:16.002Z,93.64
2022-08-03T05:58:46.093Z,92.21
2022-08-03T06:01:16.029Z,93.24
2022-08-03T06:03:43.935Z,94.26
2022-08-03T06:06:12.161Z,92.59
2022-08-03T06:08:40.592Z,92.13
2022-08-03T06:11:10.293Z,93.94
2022-08-03T06:13:38.141Z,93.19
2022-08-03T06:16:09.241Z,92.35
2022-08-03T06:18:38.952Z,93.37
2022-08-03T06:21:14.283Z,92.69
2022-08-03T06:23:53.333Z,91.16
2022-08-03T06:26:24.992Z,93.10
2022-08-03T06:28:54.567Z,92.44
2022-08-03T06:31:25.939Z,92.86
2022-08-03T06:34:34.225Z,93.87
2022-08-03T06:36:53.141Z,91.42
2022-08-03T06:39:23.453Z,90.47
2022-08-03T06:41:53.432Z,91.08
2022-08-03T06:44:21.339Z,89.87
2022-08-03T06:46:49.055Z,90.87
2022-08-03T06:49:18.846Z,91.30
2022-08-03T06:52:37.069Z,92.02
2022-08-03T06:54:37.145Z,90.19
2022-08-03T06:57:06.043Z,86.27
2022-08-03T07:00:09.092Z,86.13
2022-08-03T07:02:24.654Z,85.95
2022-08-03T07:04:58.026Z,86.80
2022-08-03T07:07:25.886Z,84.60
2022-08-03T07:09:57.019Z,84.44
2022-08-03T07:12:27.178Z,83.39
2022-08-03T07:15:01.208Z,83.89
2022-08-03T07:17:30.954Z,83.98
2022-08-03T07:20:01.315Z,84.86
2022-08-03T07:22:29.381Z,83.70
2022-08-03T07:24:57.573Z,83.16
2022-08-03T07:27:28.164Z,82.59
2022-08-03T07:29:56.191Z,82.01
2022-08-03T07:32:25.768Z,81.25
2022-08-03T07:34:58.292Z,80.14
2022-08-03T07:37:30.346Z,81.11
2022-08-03T07:39:58.372Z,80.80
2022-08-03T07:42:26.190Z,79.79
2022-08-03T07:44:54.015Z,79.38
2022-08-03T07:47:23.962Z,77.33
2022-08-03T07:49:51.820Z,76.30
2022-08-03T07:52:36.941Z,76.08
2022-08-03T07:55:07.476Z,75.77
2022-08-03T07:57:36.158Z,74.89
2022-08-03T08:00:06.513Z,74.26
2022-08-03T08:02:43.905Z,73.46
2022-08-03T08:05:12.571Z,73.59
2022-08-03T08:07:40.961Z,72.49
2022-08-03T08:10:11.627Z,71.88
2022-08-03T08:12:41.371Z,73.33
2022-08-03T08:15:10.139Z,74.85
2022-08-03T08:17:46.475Z,72.52
2022-08-03T08:20:18.900Z,72.91
2022-08-03T08:22:58.096Z,71.98
2022-08-03T08:25:27.494Z,71.57
2022-08-03T08:28:31.032Z,71.00
2022-08-03T08:30:43.777Z,70.34
2022-08-03T08:33:22.449Z,70.70
2022-08-03T08:35:53.062Z,71.22
2022-08-03T08:38:21.208Z,71.31
2022-08-03T08:40:50.596Z,71.67
2022-08-03T08:43:18.516Z,71.00
2022-08-03T08:45:47.413Z,71.66
2022-08-03T08:48:16.536Z,71.20
2022-08-03T08:50:45.018Z,71.89
2022-08-03T08:53:17.583Z,71.24
2022-08-03T08:55:59.419Z,70.77
2022-08-03T08:58:33.816Z,70.71
2022-08-03T09:01:01.756Z,70.86
2022-08-03T09:03:30.938Z,70.15
2022-08-03T09:06:01.317Z,69.82
2022-08-03T09:08:30.346Z,69.68
2022-08-03T09:10:58.333Z,69.68
2022-08-03T09:13:26.411Z,68.98
2022-08-03T09:16:15.243Z,67.75
2022-08-03T09:18:44.154Z,67.52
2022-08-03T09:21:32.301Z,68.85
2022-08-03T09:24:05.196Z,66.63
2022-08-03T09:26:35.709Z,67.16
2022-08-03T09:29:10.903Z,66.16
2022-08-03T09:31:46.455Z,66.97
2022-08-03T09:34:16.655Z,66.37
2022-08-03T09:36:48.661Z,65.63
2022-08-03T09:39:17.762Z,66.76
2022-08-03T09:41:47.166Z,65.11
2022-08-03T09:44:24.663Z,64.41
2022-08-03T09:46:57.235Z,64.02
2022-08-03T09:49:25.865Z,64.79
2022-08-03T09:52:31.467Z,61.74
2022-08-03T09:54:42.422Z,60.46
2022-08-03T09:57:20.884Z,61.23
2022-08-03T09:59:48.817Z,60.83
2022-08-03T10:02:25.428Z,60.61
2022-08-03T10:04:54.156Z,60.94
2022-08-03T10:07:23.860Z,59.53
2022-08-03T10:09:56.641Z,58.81
2022-08-03T10:12:25.312Z,60.01
2022-08-03T10:14:53.952Z,58.94
2022-08-03T10:17:22.869Z,57.63
2022-08-03T10:19:52.188Z,57.53
2022-08-03T10:22:23.480Z,57.07
2022-08-03T10:24:56.816Z,58.43
2022-08-03T10:27:25.872Z,60.20
2022-08-03T10:29:56.301Z,56.32
2022-08-03T10:32:29.776Z,53.78
2022-08-03T10:35:19.135Z,52.91
2022-08-03T10:37:57.184Z,52.42
2022-08-03T10:43:20.912Z,51.58
2022-08-03T10:45:49.249Z,50.84
2022-08-03T10:48:18.313Z,48.84
2022-08-03T10:50:49.505Z,47.22
2022-08-03T10:53:18.661Z,46.37
2022-08-03T10:56:05.772Z,45.61
2022-08-03T10:58:53.483Z,44.83
2022-08-03T11:01:58.799Z,44.05
2022-08-03T11:04:29.263Z,43.83
2022-08-03T11:07:23.538Z,43.84
2022-08-03T11:09:52.702Z,43.84
2022-08-03T11:12:29.973Z,42.35
2022-08-03T11:15:02.330Z,42.19
2022-08-03T11:17:30.256Z,42.12
2022-08-03T11:19:58.708Z,43.12
2022-08-03T11:22:54.059Z,41.65
2022-08-03T11:25:54.756Z,41.29
2022-08-03T11:28:36.876Z,42.04
2022-08-03T11:31:51.460Z,39.96
2022-08-03T11:34:19.766Z,41.75
2022-08-03T11:37:23.573Z,41.19
2022-08-03T11:39:56.942Z,40.95
2022-08-03T11:42:48.259Z,39.49
2022-08-03T11:45:16.780Z,39.05
2022-08-03T11:47:50.764Z,38.77
2022-08-03T11:50:21.145Z,38.34
2022-08-03T11:52:50.157Z,38.23
2022-08-03T11:55:22.103Z,38.60
2022-08-03T11:58:58.059Z,38.49
2022-08-03T12:00:38.276Z,38.92
2022-08-03T12:03:09.170Z,38.43
2022-08-03T12:05:39.388Z,37.98
2022-08-03T12:08:08.019Z,37.00
2022-08-03T12:10:38.215Z,37.07
2022-08-03T12:14:45.122Z,37.33
2022-08-03T12:15:59.168Z,36.57
2022-08-03T12:18:27.143Z,36.29
2022-08-03T12:21:05.832Z,36.51
2022-08-03T12:23:37.406Z,36.84
2022-08-03T12:26:08.636Z,36.93
2022-08-03T12:28:38.434Z,35.96
2022-08-03T12:31:09.305Z,36.26
2022-08-03T12:34:02.820Z,35.25
2022-08-03T12:36:32.117Z,34.56
2022-08-03T12:39:02.429Z,34.75
2022-08-03T12:41:35.834Z,35.69
2022-08-03T12:44:04.567Z,34.22
2022-08-03T12:46:34.340Z,34.86
2022-08-03T12:49:05.829Z,35.25
2022-08-03T12:51:35.681Z,36.06
2022-08-03T12:54:04.879Z,36.25
2022-08-03T12:56:34.346Z,36.87
2022-08-03T12:59:02.319Z,37.47
2022-08-03T13:01:38.139Z,37.93
2022-08-03T13:04:30.345Z,38.65
2022-08-03T13:07:03.407Z,38.68
2022-08-03T13:09:41.595Z,38.28
2022-08-03T13:12:13.301Z,37.82
2022-08-03T13:14:41.576Z,36.48
2022-08-03T13:17:12.425Z,36.51
2022-08-03T13:19:41.207Z,35.85
2022-08-03T13:22:13.433Z,36.31
2022-08-03T13:24:41.368Z,35.82
2022-08-03T13:28:04.928Z,35.78
2022-08-03T13:29:59.476Z,35.50
2022-08-03T13:32:27.774Z,35.27
2022-08-03T13:34:55.670Z,35.92
2022-08-03T13:37:23.847Z,36.31
2022-08-03T13:39:58.996Z,37.13
2022-08-03T13:42:31.220Z,36.98
2022-08-03T13:44:59.569Z,37.68
2022-08-03T13:47:27.656Z,37.63
2022-08-03T13:50:01.763Z,36.28
2022-08-03T13:52:31.668Z,37.44
2022-08-03T13:54:59.825Z,38.05
2022-08-03T13:58:03.796Z,37.65
2022-08-03T14:00:26.446Z,37.67
2022-08-03T14:03:02.946Z,37.60
2022-08-03T14:05:35.130Z,37.55
2022-08-03T14:08:05.291Z,37.09
2022-08-03T14:10:35.011Z,36.95
2022-08-03T14:13:02.810Z,37.14
2022-08-03T14:15:37.557Z,36.31
2022-08-03T14:18:06.737Z,36.61
2022-08-03T14:20:36.856Z,37.24
2022-08-03T14:23:07.580Z,36.87
2022-08-03T14:25:43.604Z,36.95
2022-08-03T14:28:18.913Z,36.59
2022-08-03T14:30:48.641Z,37.91
2022-08-03T14:33:20.069Z,37.80
2022-08-03T14:35:50.421Z,37.93
2022-08-03T14:38:19.153Z,38.33
2022-08-03T14:40:47.535Z,37.64
2022-08-03T14:43:17.777Z,37.53
2022-08-03T14:45:45.580Z,37.88
2022-08-03T14:50:27.964Z,37.89
2022-08-03T14:51:06.611Z,38.26
2022-08-03T14:53:35.703Z,39.06
2022-08-03T14:56:07.965Z,37.96
2022-08-03T14:58:38.194Z,37.83
2022-08-03T15:02:06.335Z,37.46
2022-08-03T15:03:56.802Z,37.34
2022-08-03T15:06:24.643Z,36.29
2022-08-03T15:09:20.906Z,36.38
2022-08-03T15:11:40.210Z,36.67
2022-08-03T15:14:09.537Z,37.73
2022-08-03T15:16:37.857Z,37.94
2022-08-03T15:20:01.316Z,37.23
2022-08-03T15:21:54.998Z,36.60
2022-08-03T15:24:22.947Z,37.18
2022-08-03T15:26:53.534Z,37.99
2022-08-03T15:30:07.257Z,37.18
2022-08-03T15:32:09.776Z,37.85
2022-08-03T15:34:39.167Z,37.33
2022-08-03T15:37:12.857Z,38.19
2022-08-03T15:39:59.621Z,38.75
2022-08-03T15:42:29.553Z,37.68
2022-08-03T15:44:57.404Z,38.27
2022-08-03T15:47:25.383Z,38.90
2022-08-03T15:49:54.618Z,38.40
2022-08-03T15:52:22.633Z,38.68
2022-08-03T15:54:50.750Z,38.04
2022-08-03T15:57:19.097Z,38.45
2022-08-03T15:59:47.232Z,39.26
2022-08-03T16:02:15.360Z,38.91
2022-08-03T16:04:43.573Z,39.04
2022-08-03T16:07:15.708Z,39.23
2022-08-03T16:09:44.323Z,38.91
2022-08-03T16:12:16.327Z,38.63
2022-08-03T16:14:53.769Z,38.03
2022-08-03T16:17:22.629Z,39.01
2022-08-03T16:19:50.757Z,39.00
2022-08-03T16:22:23.035Z,38.47
2022-08-03T16:24:51.849Z,38.25
2022-08-03T16:27:37.328Z,37.21
2022-08-03T16:30:10.524Z,38.34
2022-08-03T16:32:39.803Z,37.44
2022-08-03T16:35:08.445Z,38.44
2022-08-03T16:37:39.211Z,38.89
2022-08-03T16:40:19.161Z,38.16
2022-08-03T16:42:47.664Z,38.91
2022-08-03T16:45:15.703Z,38.73
2022-08-03T16:47:43.600Z,38.22
2022-08-03T16:50:19.020Z,37.95
2022-08-03T16:52:48.842Z,38.19
2022-08-03T16:55:42.893Z,37.67
2022-08-03T16:58:05.748Z,37.90
2022-08-03T17:00:41.518Z,38.04
2022-08-03T17:03:18.591Z,39.15
2022-08-03T17:05:49.686Z,38.33
2022-08-03T17:08:26.628Z,39.28
2022-08-03T17:10:56.076Z,38.59
2022-08-03T17:13:39.294Z,37.96
2022-08-03T17:16:12.088Z,37.79
2022-08-03T17:18:51.901Z,37.81
2022-08-03T17:21:25.862Z,38.64
2022-08-03T17:24:05.263Z,39.54
2022-08-03T17:26:44.771Z,38.75
2022-08-03T17:29:14.564Z,39.32
2022-08-03T17:31:49.065Z,38.91
2022-08-03T17:34:18.925Z,38.79
2022-08-03T17:37:03.688Z,38.98
2022-08-03T17:42:30.678Z,39.79
2022-08-03T17:45:08.302Z,40.05
2022-08-03T17:47:43.860Z,40.65
2022-08-03T17:50:25.076Z,41.00
2022-08-03T17:53:07.510Z,40.74
2022-08-03T17:55:54.863Z,40.94
2022-08-03T17:58:39.625Z,40.25
2022-08-03T18:02:00.316Z,40.99
2022-08-03T18:04:30.019Z,41.26
2022-08-03T18:07:11.279Z,41.41
2022-08-03T18:10:04.538Z,40.72
2022-08-03T18:12:51.885Z,40.50
2022-08-03T18:15:26.025Z,41.19
2022-08-03T18:18:02.008Z,41.12
2022-08-03T18:20:40.895Z,41.72
2022-08-03T18:23:25.121Z,42.55
2022-08-03T18:26:01.381Z,42.69
2022-08-03T18:28:32.237Z,41.60
2022-08-03T18:31:04.261Z,42.35
2022-08-03T18:34:17.896Z,42.33
2022-08-03T18:36:29.929Z,45.04
2022-08-03T18:39:00.222Z,43.12
2022-08-03T18:41:33.530Z,43.55
2022-08-03T18:44:08.185Z,43.37
2022-08-03T18:46:51.430Z,43.79
2022-08-03T18:49:42.312Z,43.32
2022-08-03T18:52:17.947Z,42.96
2022-08-03T18:55:06.564Z,43.98
2022-08-03T18:57:43.364Z,43.83
2022-08-03T19:00:16.158Z,43.27
2022-08-03T19:02:50.232Z,43.26
2022-08-03T19:05:21.438Z,43.53
2022-08-03T19:07:58.424Z,44.03
2022-08-03T19:10:32.137Z,44.29
2022-08-03T19:13:05.423Z,44.99
2022-08-03T19:15:51.394Z,47.95
2022-08-03T19:18:22.499Z,49.84
2022-08-03T19:20:54.613Z,53.50
2022-08-03T19:23:24.940Z,55.54
2022-08-03T19:25:53.119Z,55.15
2022-08-03T19:31:12.859Z,57.20
2022-08-03T19:33:57.433Z,53.31
2022-08-03T19:36:28.603Z,55.84
2022-08-03T19:38:57.388Z,58.31
2022-08-03T19:41:41.649Z,60.31
2022-08-03T19:46:55.082Z,60.16
2022-08-03T19:50:06.201Z,60.39
2022-08-03T19:52:24.182Z,60.04
2022-08-03T19:54:55.243Z,61.04
2022-08-03T19:57:27.049Z,61.29
2022-08-03T19:59:57.305Z,59.13
2022-08-03T20:02:28.058Z,59.30
2022-08-03T20:04:59.645Z,61.26
2022-08-03T20:07:30.693Z,62.66
2022-08-03T20:10:01.371Z,62.45
2022-08-03T20:12:34.391Z,63.01
2022-08-03T20:15:09.049Z,62.44
2022-08-03T20:17:56.063Z,62.67
2022-08-03T20:20:28.084Z,58.74
2022-08-03T20:22:58.786Z,61.82
2022-08-03T20:25:38.579Z,64.34
2022-08-03T20:28:14.242Z,64.63
2022-08-03T20:30:47.215Z,62.07
2022-08-03T20:33:18.992Z,61.67
2022-08-03T20:35:49.640Z,63.46
2022-08-03T20:38:19.476Z,63.02
2022-08-03T20:40:48.488Z,61.95
2022-08-03T20:43:16.782Z,61.57
2022-08-03T20:46:00.028Z,61.54
2022-08-03T20:48:37.888Z,61.00
2022-08-03T20:51:19.391Z,61.55
2022-08-03T20:54:00.505Z,63.65
2022-08-03T20:56:33.660Z,61.92
2022-08-03T20:59:03.627Z,61.89
2022-08-03T21:01:35.950Z,62.55
2022-08-03T21:04:07.212Z,63.88
2022-08-03T21:06:53.408Z,63.08
2022-08-03T21:09:33.388Z,62.81
2022-08-03T21:12:13.316Z,65.07
2022-08-03T21:13:10.182Z,57.92
2022-08-03T21:14:51.883Z,64.92
2022-08-03T21:17:39.984Z,64.28
2022-08-03T21:20:12.099Z,64.50
2022-08-03T21:22:43.526Z,63.80
2022-08-03T21:25:15.038Z,64.71
2022-08-03T21:27:43.345Z,65.01
2022-08-03T21:30:12.707Z,65.81
2022-08-03T21:32:45.368Z,66.43
2022-08-03T21:35:15.968Z,66.39
2022-08-03T21:37:44.982Z,66.29
2022-08-03T21:40:15.384Z,66.19
2022-08-03T21:42:44.885Z,67.07
2022-08-03T21:45:17.437Z,66.92
2022-08-03T21:47:48.398Z,68.51
2022-08-03T21:50:18.197Z,70.21
2022-08-03T21:52:48.471Z,67.65
2022-08-03T21:55:18.590Z,66.57
2022-08-03T21:57:52.637Z,68.88
2022-08-03T22:00:22.895Z,67.93
2022-08-03T22:02:55.294Z,68.66
2022-08-03T22:05:29.135Z,67.26
2022-08-03T22:08:10.716Z,66.92
2022-08-03T22:10:38.919Z,68.09
2022-08-03T22:13:07.245Z,67.55
2022-08-03T22:15:35.252Z,68.29
2022-08-03T22:18:03.648Z,70.98
2022-08-03T22:20:33.225Z,68.44
2022-08-03T22:23:03.749Z,68.54
2022-08-03T22:25:33.538Z,69.73
2022-08-03T22:28:03.707Z,69.58
2022-08-03T22:30:33.095Z,69.81
2022-08-03T22:33:02.488Z,70.14
2022-08-03T22:35:48.054Z,70.23
2022-08-03T22:38:17.358Z,69.67
2022-08-03T22:40:45.926Z,69.62
2022-08-03T22:43:13.884Z,69.91
2022-08-03T22:46:11.223Z,70.56
2022-08-03T22:48:35.408Z,69.62
2022-08-03T22:51:10.686Z,70.69
2022-08-03T22:53:40.032Z,70.19
2022-08-03T22:56:08.681Z,72.31
2022-08-03T22:58:36.548Z,71.79
2022-08-03T23:01:06.918Z,71.32
2022-08-03T23:03:59.069Z,71.51
2022-08-03T23:06:32.403Z,71.19
2022-08-03T23:09:00.671Z,71.00
2022-08-03T23:11:29.548Z,71.07
2022-08-03T23:13:59.230Z,71.94
2022-08-03T23:16:29.504Z,70.58
2022-08-03T23:18:59.179Z,71.14
2022-08-03T23:21:53.326Z,70.47
2022-08-03T23:24:29.836Z,72.75
2022-08-03T23:26:58.717Z,73.76
2022-08-03T23:29:29.899Z,75.62
2022-08-03T23:31:59.353Z,77.13
2022-08-03T23:34:46.847Z,77.93
2022-08-03T23:37:16.351Z,78.11
2022-08-03T23:39:46.479Z,77.67
2022-08-03T23:42:16.237Z,77.56
2022-08-03T23:44:45.748Z,79.77
2022-08-03T23:47:13.753Z,79.98
2022-08-03T23:49:41.697Z,79.14
2022-08-03T23:52:11.302Z,78.89
2022-08-03T23:54:52.252Z,79.53
2022-08-03T23:57:29.597Z,81.83
